sensor_id;sensor_type;location;lat;lon;timestamp;P1;durP1;ratioP1;P2;durP2;ratioP2
21060;SDS011;10689;50.836;3.266;2023-02-28T00:01:22;6.17;;;3.43;;
21060;SDS011;10689;50.836;3.266;2023-02-28T00:03:48;5.77;;;4.10;;
21060;SDS011;10689;50.836;3.266;2023-02-28T00:06:14;5.13;;;3.70;;
21060;SDS011;10689;50.836;3.266;2023-02-28T00:08:40;5.53;;;3.53;;
21060;SDS011;10689;50.836;3.266;2023-02-28T00:11:09;5.47;;;4.27;;
21060;SDS011;10689;50.836;3.266;2023-02-28T00:13:38;4.10;;;3.70;;
21060;SDS011;10689;50.836;3.266;2023-02-28T00:16:07;6.40;;;3.90;;
21060;SDS011;10689;50.836;3.266;2023-02-28T00:18:36;6.07;;;4.10;;
21060;SDS011;10689;50.836;3.266;2023-02-28T00:21:02;4.93;;;4.03;;
21060;SDS011;10689;50.836;3.266;2023-02-28T00:23:28;4.23;;;3.27;;
21060;SDS011;10689;50.836;3.266;2023-02-28T00:25:55;5.83;;;5.17;;
21060;SDS011;10689;50.836;3.266;2023-02-28T00:28:21;5.13;;;4.07;;
21060;SDS011;10689;50.836;3.266;2023-02-28T00:30:47;4.73;;;4.30;;
21060;SDS011;10689;50.836;3.266;2023-02-28T00:33:16;6.87;;;4.23;;
21060;SDS011;10689;50.836;3.266;2023-02-28T00:35:42;5.87;;;4.70;;
21060;SDS011;10689;50.836;3.266;2023-02-28T00:38:11;6.43;;;4.57;;
21060;SDS011;10689;50.836;3.266;2023-02-28T00:40:39;5.70;;;4.43;;
21060;SDS011;10689;50.836;3.266;2023-02-28T00:43:05;5.27;;;4.20;;
21060;SDS011;10689;50.836;3.266;2023-02-28T00:45:32;5.47;;;4.23;;
21060;SDS011;10689;50.836;3.266;2023-02-28T00:47:58;6.93;;;4.90;;
21060;SDS011;10689;50.836;3.266;2023-02-28T00:50:24;5.90;;;4.50;;
21060;SDS011;10689;50.836;3.266;2023-02-28T00:52:49;6.03;;;4.70;;
21060;SDS011;10689;50.836;3.266;2023-02-28T00:55:15;6.17;;;4.47;;
21060;SDS011;10689;50.836;3.266;2023-02-28T00:57:41;6.70;;;4.67;;
21060;SDS011;10689;50.836;3.266;2023-02-28T01:00:07;6.87;;;4.97;;
21060;SDS011;10689;50.836;3.266;2023-02-28T01:02:36;5.50;;;4.63;;
21060;SDS011;10689;50.836;3.266;2023-02-28T01:05:02;5.20;;;4.50;;
21060;SDS011;10689;50.836;3.266;2023-02-28T01:07:28;6.43;;;4.83;;
21060;SDS011;10689;50.836;3.266;2023-02-28T01:09:53;4.73;;;4.30;;
21060;SDS011;10689;50.836;3.266;2023-02-28T01:12:19;4.67;;;4.27;;
21060;SDS011;10689;50.836;3.266;2023-02-28T01:14:45;4.90;;;4.40;;
21060;SDS011;10689;50.836;3.266;2023-02-28T01:17:10;5.47;;;4.90;;
21060;SDS011;10689;50.836;3.266;2023-02-28T01:19:36;4.90;;;4.17;;
21060;SDS011;10689;50.836;3.266;2023-02-28T01:22:04;6.07;;;4.70;;
21060;SDS011;10689;50.836;3.266;2023-02-28T01:24:30;5.57;;;4.73;;
21060;SDS011;10689;50.836;3.266;2023-02-28T01:26:57;5.53;;;4.33;;
21060;SDS011;10689;50.836;3.266;2023-02-28T01:29:23;5.07;;;4.57;;
21060;SDS011;10689;50.836;3.266;2023-02-28T01:31:48;7.53;;;4.73;;
21060;SDS011;10689;50.836;3.266;2023-02-28T01:34:14;6.00;;;4.20;;
21060;SDS011;10689;50.836;3.266;2023-02-28T01:36:40;5.07;;;4.13;;
21060;SDS011;10689;50.836;3.266;2023-02-28T01:39:07;5.20;;;4.33;;
21060;SDS011;10689;50.836;3.266;2023-02-28T01:41:33;5.20;;;4.67;;
21060;SDS011;10689;50.836;3.266;2023-02-28T01:44:03;5.27;;;4.40;;
21060;SDS011;10689;50.836;3.266;2023-02-28T01:46:34;6.03;;;4.67;;
21060;SDS011;10689;50.836;3.266;2023-02-28T01:49:02;5.00;;;4.47;;
21060;SDS011;10689;50.836;3.266;2023-02-28T01:54:11;5.37;;;4.53;;
21060;SDS011;10689;50.836;3.266;2023-02-28T01:56:46;6.87;;;4.80;;
21060;SDS011;10689;50.836;3.266;2023-02-28T01:59:20;5.37;;;4.87;;
21060;SDS011;10689;50.836;3.266;2023-02-28T02:01:56;9.37;;;4.67;;
21060;SDS011;10689;50.836;3.266;2023-02-28T02:04:25;6.70;;;4.77;;
21060;SDS011;10689;50.836;3.266;2023-02-28T02:06:56;7.83;;;4.90;;
21060;SDS011;10689;50.836;3.266;2023-02-28T02:09:24;5.93;;;5.00;;
21060;SDS011;10689;50.836;3.266;2023-02-28T02:11:49;6.17;;;4.57;;
21060;SDS011;10689;50.836;3.266;2023-02-28T02:36:38;7.53;;;5.03;;
21060;SDS011;10689;50.836;3.266;2023-02-28T02:39:14;7.30;;;5.67;;
21060;SDS011;10689;50.836;3.266;2023-02-28T02:41:53;16.07;;;5.43;;
21060;SDS011;10689;50.836;3.266;2023-02-28T02:44:29;7.83;;;6.00;;
21060;SDS011;10689;50.836;3.266;2023-02-28T02:47:03;6.27;;;5.60;;
21060;SDS011;10689;50.836;3.266;2023-02-28T02:49:35;7.60;;;5.83;;
21060;SDS011;10689;50.836;3.266;2023-02-28T02:52:04;8.27;;;5.80;;
21060;SDS011;10689;50.836;3.266;2023-02-28T02:54:40;8.30;;;5.50;;
21060;SDS011;10689;50.836;3.266;2023-02-28T02:57:09;7.17;;;5.67;;
21060;SDS011;10689;50.836;3.266;2023-02-28T02:59:40;7.97;;;6.13;;
21060;SDS011;10689;50.836;3.266;2023-02-28T03:02:07;13.87;;;7.10;;
21060;SDS011;10689;50.836;3.266;2023-02-28T03:04:46;6.30;;;5.63;;
21060;SDS011;10689;50.836;3.266;2023-02-28T03:07:17;7.90;;;5.70;;
21060;SDS011;10689;50.836;3.266;2023-02-28T03:09:53;8.90;;;5.83;;
21060;SDS011;10689;50.836;3.266;2023-02-28T03:12:21;9.17;;;6.17;;
21060;SDS011;10689;50.836;3.266;2023-02-28T03:15:13;6.77;;;5.50;;
21060;SDS011;10689;50.836;3.266;2023-02-28T03:18:01;8.93;;;6.43;;
21060;SDS011;10689;50.836;3.266;2023-02-28T03:20:40;8.83;;;6.43;;
21060;SDS011;10689;50.836;3.266;2023-02-28T03:23:17;8.90;;;5.73;;
21060;SDS011;10689;50.836;3.266;2023-02-28T03:31:18;7.53;;;6.47;;
21060;SDS011;10689;50.836;3.266;2023-02-28T03:36:59;8.33;;;5.77;;
21060;SDS011;10689;50.836;3.266;2023-02-28T03:39:53;10.13;;;6.50;;
21060;SDS011;10689;50.836;3.266;2023-02-28T03:42:21;7.07;;;5.80;;
21060;SDS011;10689;50.836;3.266;2023-02-28T03:44:57;11.27;;;5.93;;
21060;SDS011;10689;50.836;3.266;2023-02-28T03:47:36;7.60;;;5.57;;
21060;SDS011;10689;50.836;3.266;2023-02-28T03:50:14;8.93;;;6.47;;
21060;SDS011;10689;50.836;3.266;2023-02-28T03:55:48;7.63;;;5.57;;
21060;SDS011;10689;50.836;3.266;2023-02-28T03:58:28;8.17;;;5.60;;
21060;SDS011;10689;50.836;3.266;2023-02-28T04:01:00;7.20;;;5.10;;
21060;SDS011;10689;50.836;3.266;2023-02-28T04:03:38;7.33;;;5.70;;
21060;SDS011;10689;50.836;3.266;2023-02-28T04:06:05;8.57;;;6.67;;
21060;SDS011;10689;50.836;3.266;2023-02-28T04:08:33;6.50;;;5.77;;
21060;SDS011;10689;50.836;3.266;2023-02-28T04:11:06;6.90;;;5.87;;
21060;SDS011;10689;50.836;3.266;2023-02-28T04:13:39;7.23;;;6.03;;
21060;SDS011;10689;50.836;3.266;2023-02-28T04:16:08;8.27;;;5.97;;
21060;SDS011;10689;50.836;3.266;2023-02-28T04:18:38;8.30;;;5.37;;
21060;SDS011;10689;50.836;3.266;2023-02-28T04:21:04;8.00;;;5.80;;
21060;SDS011;10689;50.836;3.266;2023-02-28T04:23:31;7.50;;;6.03;;
21060;SDS011;10689;50.836;3.266;2023-02-28T04:25:58;7.97;;;6.00;;
21060;SDS011;10689;50.836;3.266;2023-02-28T04:28:26;8.23;;;6.37;;
21060;SDS011;10689;50.836;3.266;2023-02-28T04:30:58;7.53;;;5.90;;
21060;SDS011;10689;50.836;3.266;2023-02-28T04:33:26;8.87;;;6.27;;
21060;SDS011;10689;50.836;3.266;2023-02-28T04:35:59;8.03;;;6.10;;
21060;SDS011;10689;50.836;3.266;2023-02-28T04:38:34;7.30;;;5.83;;
21060;SDS011;10689;50.836;3.266;2023-02-28T04:41:03;7.40;;;6.00;;
21060;SDS011;10689;50.836;3.266;2023-02-28T04:43:29;7.27;;;6.27;;
21060;SDS011;10689;50.836;3.266;2023-02-28T04:45:56;9.33;;;6.40;;
21060;SDS011;10689;50.836;3.266;2023-02-28T04:48:27;6.83;;;5.27;;
21060;SDS011;10689;50.836;3.266;2023-02-28T04:50:59;6.77;;;6.07;;
21060;SDS011;10689;50.836;3.266;2023-02-28T04:53:25;6.50;;;5.37;;
21060;SDS011;10689;50.836;3.266;2023-02-28T04:55:53;7.93;;;5.70;;
21060;SDS011;10689;50.836;3.266;2023-02-28T04:58:19;7.57;;;5.67;;
21060;SDS011;10689;50.836;3.266;2023-02-28T05:00:44;7.87;;;5.70;;
21060;SDS011;10689;50.836;3.266;2023-02-28T05:03:12;14.37;;;5.87;;
21060;SDS011;10689;50.836;3.266;2023-02-28T05:05:38;8.87;;;6.40;;
21060;SDS011;10689;50.836;3.266;2023-02-28T05:08:04;6.77;;;5.67;;
21060;SDS011;10689;50.836;3.266;2023-02-28T05:10:31;8.83;;;6.13;;
21060;SDS011;10689;50.836;3.266;2023-02-28T05:12:57;7.10;;;5.73;;
21060;SDS011;10689;50.836;3.266;2023-02-28T05:15:23;7.40;;;6.23;;
21060;SDS011;10689;50.836;3.266;2023-02-28T05:17:49;9.07;;;5.50;;
21060;SDS011;10689;50.836;3.266;2023-02-28T05:20:15;9.00;;;5.23;;
21060;SDS011;10689;50.836;3.266;2023-02-28T05:22:43;6.77;;;5.67;;
21060;SDS011;10689;50.836;3.266;2023-02-28T05:25:19;8.17;;;5.33;;
21060;SDS011;10689;50.836;3.266;2023-02-28T05:27:47;9.20;;;5.73;;
21060;SDS011;10689;50.836;3.266;2023-02-28T05:30:13;9.03;;;5.13;;
21060;SDS011;10689;50.836;3.266;2023-02-28T05:32:39;9.07;;;5.83;;
21060;SDS011;10689;50.836;3.266;2023-02-28T05:35:08;10.27;;;5.87;;
21060;SDS011;10689;50.836;3.266;2023-02-28T05:37:38;9.17;;;6.00;;
21060;SDS011;10689;50.836;3.266;2023-02-28T05:40:04;7.13;;;5.73;;
21060;SDS011;10689;50.836;3.266;2023-02-28T05:42:32;9.93;;;6.17;;
21060;SDS011;10689;50.836;3.266;2023-02-28T05:45:00;7.30;;;5.33;;
21060;SDS011;10689;50.836;3.266;2023-02-28T05:47:25;8.77;;;5.87;;
21060;SDS011;10689;50.836;3.266;2023-02-28T05:49:51;11.07;;;5.70;;
21060;SDS011;10689;50.836;3.266;2023-02-28T05:52:19;7.90;;;5.63;;
21060;SDS011;10689;50.836;3.266;2023-02-28T05:54:45;7.83;;;6.63;;
21060;SDS011;10689;50.836;3.266;2023-02-28T05:57:12;10.00;;;6.53;;
21060;SDS011;10689;50.836;3.266;2023-02-28T05:59:37;9.35;;;6.90;;
21060;SDS011;10689;50.836;3.266;2023-02-28T06:02:05;10.03;;;6.87;;
21060;SDS011;10689;50.836;3.266;2023-02-28T06:04:35;6.83;;;5.37;;
21060;SDS011;10689;50.836;3.266;2023-02-28T06:07:03;8.20;;;6.43;;
21060;SDS011;10689;50.836;3.266;2023-02-28T06:09:29;8.07;;;6.17;;
21060;SDS011;10689;50.836;3.266;2023-02-28T06:11:57;10.63;;;6.77;;
21060;SDS011;10689;50.836;3.266;2023-02-28T06:14:23;7.57;;;5.43;;
21060;SDS011;10689;50.836;3.266;2023-02-28T06:16:49;8.70;;;6.70;;
21060;SDS011;10689;50.836;3.266;2023-02-28T06:19:17;8.50;;;7.00;;
21060;SDS011;10689;50.836;3.266;2023-02-28T06:21:49;9.73;;;6.13;;
21060;SDS011;10689;50.836;3.266;2023-02-28T06:24:17;11.23;;;6.77;;
21060;SDS011;10689;50.836;3.266;2023-02-28T06:26:46;12.80;;;8.33;;
21060;SDS011;10689;50.836;3.266;2023-02-28T06:29:11;9.30;;;6.37;;
21060;SDS011;10689;50.836;3.266;2023-02-28T06:31:43;10.30;;;6.33;;
21060;SDS011;10689;50.836;3.266;2023-02-28T06:34:10;8.53;;;6.50;;
21060;SDS011;10689;50.836;3.266;2023-02-28T06:36:39;9.07;;;6.90;;
21060;SDS011;10689;50.836;3.266;2023-02-28T06:39:10;9.63;;;7.50;;
21060;SDS011;10689;50.836;3.266;2023-02-28T06:41:36;8.83;;;6.30;;
21060;SDS011;10689;50.836;3.266;2023-02-28T06:44:05;7.37;;;6.00;;
21060;SDS011;10689;50.836;3.266;2023-02-28T06:46:36;9.27;;;4.87;;
21060;SDS011;10689;50.836;3.266;2023-02-28T06:49:03;6.50;;;5.77;;
21060;SDS011;10689;50.836;3.266;2023-02-28T06:51:30;11.10;;;5.93;;
21060;SDS011;10689;50.836;3.266;2023-02-28T06:53:55;6.60;;;5.67;;
21060;SDS011;10689;50.836;3.266;2023-02-28T06:56:21;8.47;;;6.00;;
21060;SDS011;10689;50.836;3.266;2023-02-28T06:58:47;8.43;;;5.87;;
21060;SDS011;10689;50.836;3.266;2023-02-28T07:01:17;9.07;;;6.60;;
21060;SDS011;10689;50.836;3.266;2023-02-28T07:03:44;6.77;;;5.57;;
21060;SDS011;10689;50.836;3.266;2023-02-28T07:06:10;8.50;;;5.97;;
21060;SDS011;10689;50.836;3.266;2023-02-28T07:08:36;7.60;;;6.03;;
21060;SDS011;10689;50.836;3.266;2023-02-28T07:11:02;8.67;;;6.13;;
21060;SDS011;10689;50.836;3.266;2023-02-28T07:13:27;7.80;;;5.57;;
21060;SDS011;10689;50.836;3.266;2023-02-28T07:15:57;10.53;;;8.13;;
21060;SDS011;10689;50.836;3.266;2023-02-28T07:18:26;10.57;;;6.97;;
21060;SDS011;10689;50.836;3.266;2023-02-28T07:20:52;9.30;;;6.37;;
21060;SDS011;10689;50.836;3.266;2023-02-28T07:23:19;12.25;;;8.23;;
21060;SDS011;10689;50.836;3.266;2023-02-28T07:25:45;7.80;;;6.17;;
21060;SDS011;10689;50.836;3.266;2023-02-28T07:28:11;9.33;;;7.50;;
21060;SDS011;10689;50.836;3.266;2023-02-28T07:30:37;7.73;;;6.73;;
21060;SDS011;10689;50.836;3.266;2023-02-28T07:33:03;9.33;;;7.17;;
21060;SDS011;10689;50.836;3.266;2023-02-28T07:35:31;9.77;;;6.43;;
21060;SDS011;10689;50.836;3.266;2023-02-28T07:38:02;9.90;;;7.07;;
21060;SDS011;10689;50.836;3.266;2023-02-28T07:40:28;8.50;;;5.63;;
21060;SDS011;10689;50.836;3.266;2023-02-28T07:42:54;8.43;;;6.70;;
21060;SDS011;10689;50.836;3.266;2023-02-28T07:45:20;8.67;;;6.83;;
21060;SDS011;10689;50.836;3.266;2023-02-28T07:47:48;7.20;;;5.90;;
21060;SDS011;10689;50.836;3.266;2023-02-28T07:50:16;9.73;;;6.77;;
21060;SDS011;10689;50.836;3.266;2023-02-28T07:52:42;10.07;;;6.47;;
21060;SDS011;10689;50.836;3.266;2023-02-28T07:55:08;9.33;;;6.30;;
21060;SDS011;10689;50.836;3.266;2023-02-28T07:57:34;9.20;;;6.17;;
21060;SDS011;10689;50.836;3.266;2023-02-28T08:00:01;7.20;;;5.50;;
21060;SDS011;10689;50.836;3.266;2023-02-28T08:02:31;8.53;;;6.37;;
21060;SDS011;10689;50.836;3.266;2023-02-28T08:04:57;8.77;;;6.17;;
21060;SDS011;10689;50.836;3.266;2023-02-28T08:07:23;10.23;;;6.77;;
21060;SDS011;10689;50.836;3.266;2023-02-28T08:09:48;8.10;;;5.37;;
21060;SDS011;10689;50.836;3.266;2023-02-28T08:12:14;5.80;;;4.37;;
21060;SDS011;10689;50.836;3.266;2023-02-28T08:14:39;6.90;;;4.90;;
21060;SDS011;10689;50.836;3.266;2023-02-28T08:17:05;7.60;;;5.50;;
21060;SDS011;10689;50.836;3.266;2023-02-28T08:19:31;8.80;;;4.77;;
21060;SDS011;10689;50.836;3.266;2023-02-28T08:21:59;6.20;;;4.73;;
21060;SDS011;10689;50.836;3.266;2023-02-28T08:24:25;6.53;;;4.50;;
21060;SDS011;10689;50.836;3.266;2023-02-28T08:26:55;5.90;;;4.93;;
21060;SDS011;10689;50.836;3.266;2023-02-28T08:29:20;3.50;;;3.20;;
21060;SDS011;10689;50.836;3.266;2023-02-28T08:31:46;5.70;;;4.37;;
21060;SDS011;10689;50.836;3.266;2023-02-28T08:34:13;7.10;;;4.30;;
21060;SDS011;10689;50.836;3.266;2023-02-28T08:36:41;5.57;;;3.40;;
21060;SDS011;10689;50.836;3.266;2023-02-28T08:39:07;3.47;;;3.17;;
21060;SDS011;10689;50.836;3.266;2023-02-28T08:41:36;3.87;;;3.40;;
21060;SDS011;10689;50.836;3.266;2023-02-28T08:44:02;5.93;;;3.17;;
21060;SDS011;10689;50.836;3.266;2023-02-28T08:46:30;3.40;;;3.07;;
21060;SDS011;10689;50.836;3.266;2023-02-28T08:48:56;4.87;;;3.53;;
21060;SDS011;10689;50.836;3.266;2023-02-28T08:51:26;3.63;;;3.10;;
21060;SDS011;10689;50.836;3.266;2023-02-28T08:53:58;3.67;;;3.30;;
21060;SDS011;10689;50.836;3.266;2023-02-28T08:56:25;4.30;;;3.30;;
21060;SDS011;10689;50.836;3.266;2023-02-28T08:58:51;4.60;;;3.17;;
21060;SDS011;10689;50.836;3.266;2023-02-28T09:01:22;4.47;;;3.37;;
21060;SDS011;10689;50.836;3.266;2023-02-28T09:03:50;3.77;;;3.47;;
21060;SDS011;10689;50.836;3.266;2023-02-28T09:06:17;3.53;;;3.20;;
21060;SDS011;10689;50.836;3.266;2023-02-28T09:08:44;3.23;;;2.93;;
21060;SDS011;10689;50.836;3.266;2023-02-28T09:11:12;4.13;;;3.57;;
21060;SDS011;10689;50.836;3.266;2023-02-28T09:13:38;3.93;;;3.27;;
21060;SDS011;10689;50.836;3.266;2023-02-28T09:16:05;5.97;;;3.60;;
21060;SDS011;10689;50.836;3.266;2023-02-28T09:18:36;4.27;;;2.73;;
21060;SDS011;10689;50.836;3.266;2023-02-28T09:21:10;3.97;;;3.07;;
21060;SDS011;10689;50.836;3.266;2023-02-28T09:23:39;4.83;;;3.00;;
21060;SDS011;10689;50.836;3.266;2023-02-28T09:26:05;3.37;;;2.90;;
21060;SDS011;10689;50.836;3.266;2023-02-28T09:28:32;4.47;;;2.83;;
21060;SDS011;10689;50.836;3.266;2023-02-28T09:31:00;3.80;;;3.23;;
21060;SDS011;10689;50.836;3.266;2023-02-28T09:33:26;5.13;;;3.73;;
21060;SDS011;10689;50.836;3.266;2023-02-28T09:35:57;3.23;;;2.93;;
21060;SDS011;10689;50.836;3.266;2023-02-28T09:38:25;3.27;;;2.97;;
21060;SDS011;10689;50.836;3.266;2023-02-28T09:40:53;4.23;;;3.30;;
21060;SDS011;10689;50.836;3.266;2023-02-28T09:43:24;2.93;;;2.57;;
21060;SDS011;10689;50.836;3.266;2023-02-28T09:48:41;4.73;;;3.40;;
21060;SDS011;10689;50.836;3.266;2023-02-28T09:53:56;8.40;;;3.87;;
21060;SDS011;10689;50.836;3.266;2023-02-28T09:56:24;2.90;;;2.60;;
21060;SDS011;10689;50.836;3.266;2023-02-28T09:59:25;3.87;;;2.63;;
21060;SDS011;10689;50.836;3.266;2023-02-28T10:12:53;4.20;;;2.50;;
21060;SDS011;10689;50.836;3.266;2023-02-28T10:15:21;3.20;;;2.70;;
21060;SDS011;10689;50.836;3.266;2023-02-28T10:18:00;3.77;;;2.90;;
21060;SDS011;10689;50.836;3.266;2023-02-28T10:20:29;4.97;;;2.67;;
21060;SDS011;10689;50.836;3.266;2023-02-28T10:26:17;1.83;;;1.67;;
21060;SDS011;10689;50.836;3.266;2023-02-28T10:28:44;1.97;;;1.10;;
21060;SDS011;10689;50.836;3.266;2023-02-28T10:41:32;3.00;;;1.83;;
21060;SDS011;10689;50.836;3.266;2023-02-28T10:46:42;1.80;;;1.70;;
21060;SDS011;10689;50.836;3.266;2023-02-28T10:49:13;1.93;;;1.73;;
21060;SDS011;10689;50.836;3.266;2023-02-28T10:51:42;2.80;;;1.80;;
21060;SDS011;10689;50.836;3.266;2023-02-28T10:54:22;1.87;;;1.77;;
21060;SDS011;10689;50.836;3.266;2023-02-28T10:59:37;2.03;;;1.83;;
21060;SDS011;10689;50.836;3.266;2023-02-28T11:04:56;2.80;;;1.93;;
21060;SDS011;10689;50.836;3.266;2023-02-28T11:07:25;2.20;;;2.00;;
21060;SDS011;10689;50.836;3.266;2023-02-28T11:09:51;4.33;;;2.10;;
21060;SDS011;10689;50.836;3.266;2023-02-28T11:12:36;4.17;;;2.10;;
21060;SDS011;10689;50.836;3.266;2023-02-28T11:15:07;1.90;;;1.77;;
21060;SDS011;10689;50.836;3.266;2023-02-28T11:17:54;1.77;;;1.63;;
21060;SDS011;10689;50.836;3.266;2023-02-28T11:20:23;3.23;;;2.03;;
21060;SDS011;10689;50.836;3.266;2023-02-28T11:22:53;2.97;;;2.13;;
21060;SDS011;10689;50.836;3.266;2023-02-28T11:27:56;3.13;;;2.10;;
21060;SDS011;10689;50.836;3.266;2023-02-28T11:30:27;2.00;;;1.90;;
21060;SDS011;10689;50.836;3.266;2023-02-28T11:33:10;4.93;;;2.63;;
21060;SDS011;10689;50.836;3.266;2023-02-28T11:35:45;2.50;;;2.10;;
21060;SDS011;10689;50.836;3.266;2023-02-28T11:38:14;2.90;;;2.10;;
21060;SDS011;10689;50.836;3.266;2023-02-28T11:48:40;2.47;;;2.10;;
21060;SDS011;10689;50.836;3.266;2023-02-28T11:56:50;3.87;;;2.23;;
21060;SDS011;10689;50.836;3.266;2023-02-28T12:10:37;5.17;;;2.60;;
21060;SDS011;10689;50.836;3.266;2023-02-28T12:13:12;3.00;;;2.50;;
21060;SDS011;10689;50.836;3.266;2023-02-28T12:19:05;1.90;;;1.80;;
21060;SDS011;10689;50.836;3.266;2023-02-28T12:27:28;1.57;;;1.47;;
21060;SDS011;10689;50.836;3.266;2023-02-28T12:30:02;2.07;;;1.93;;
21060;SDS011;10689;50.836;3.266;2023-02-28T12:37:38;2.67;;;2.10;;
21060;SDS011;10689;50.836;3.266;2023-02-28T12:40:18;2.30;;;2.10;;
21060;SDS011;10689;50.836;3.266;2023-02-28T12:42:47;4.37;;;2.43;;
21060;SDS011;10689;50.836;3.266;2023-02-28T12:47:48;2.80;;;2.40;;
21060;SDS011;10689;50.836;3.266;2023-02-28T12:50:17;3.30;;;1.97;;
21060;SDS011;10689;50.836;3.266;2023-02-28T12:58:36;1.87;;;1.77;;
21060;SDS011;10689;50.836;3.266;2023-02-28T13:09:11;2.53;;;2.00;;
21060;SDS011;10689;50.836;3.266;2023-02-28T13:11:46;1.93;;;1.70;;
21060;SDS011;10689;50.836;3.266;2023-02-28T13:17:00;3.67;;;2.10;;
21060;SDS011;10689;50.836;3.266;2023-02-28T13:19:35;3.23;;;1.77;;
21060;SDS011;10689;50.836;3.266;2023-02-28T13:24:51;2.13;;;2.03;;
21060;SDS011;10689;50.836;3.266;2023-02-28T13:27:22;1.67;;;1.57;;
21060;SDS011;10689;50.836;3.266;2023-02-28T13:30:58;4.43;;;2.03;;
21060;SDS011;10689;50.836;3.266;2023-02-28T13:38:44;1.73;;;1.60;;
21060;SDS011;10689;50.836;3.266;2023-02-28T13:46:31;1.97;;;1.87;;
21060;SDS011;10689;50.836;3.266;2023-02-28T14:06:07;1.57;;;1.27;;
21060;SDS011;10689;50.836;3.266;2023-02-28T14:08:45;1.80;;;1.70;;
21060;SDS011;10689;50.836;3.266;2023-02-28T14:11:27;1.60;;;1.50;;
21060;SDS011;10689;50.836;3.266;2023-02-28T14:13:58;3.53;;;1.83;;
21060;SDS011;10689;50.836;3.266;2023-02-28T14:16:41;5.20;;;1.80;;
21060;SDS011;10689;50.836;3.266;2023-02-28T14:19:12;1.83;;;1.67;;
21060;SDS011;10689;50.836;3.266;2023-02-28T14:21:59;2.30;;;2.10;;
21060;SDS011;10689;50.836;3.266;2023-02-28T14:30:14;1.83;;;1.63;;
21060;SDS011;10689;50.836;3.266;2023-02-28T14:38:35;2.07;;;1.87;;
21060;SDS011;10689;50.836;3.266;2023-02-28T14:41:22;2.27;;;2.10;;
21060;SDS011;10689;50.836;3.266;2023-02-28T14:43:55;2.67;;;1.67;;
21060;SDS011;10689;50.836;3.266;2023-02-28T14:46:24;2.50;;;1.80;;
21060;SDS011;10689;50.836;3.266;2023-02-28T14:49:00;2.90;;;2.30;;
21060;SDS011;10689;50.836;3.266;2023-02-28T14:51:29;1.70;;;1.60;;
21060;SDS011;10689;50.836;3.266;2023-02-28T14:53:59;2.07;;;1.87;;
21060;SDS011;10689;50.836;3.266;2023-02-28T14:56:33;2.65;;;2.08;;
21060;SDS011;10689;50.836;3.266;2023-02-28T14:59:01;3.03;;;2.10;;
21060;SDS011;10689;50.836;3.266;2023-02-28T15:01:29;1.63;;;1.53;;
21060;SDS011;10689;50.836;3.266;2023-02-28T15:03:57;2.70;;;2.33;;
21060;SDS011;10689;50.836;3.266;2023-02-28T15:06:28;1.70;;;1.60;;
21060;SDS011;10689;50.836;3.266;2023-02-28T15:09:07;1.97;;;1.83;;
21060;SDS011;10689;50.836;3.266;2023-02-28T15:11:39;2.30;;;2.10;;
21060;SDS011;10689;50.836;3.266;2023-02-28T15:14:12;2.00;;;1.80;;
21060;SDS011;10689;50.836;3.266;2023-02-28T15:16:44;2.20;;;2.10;;
21060;SDS011;10689;50.836;3.266;2023-02-28T15:19:23;2.97;;;2.40;;
21060;SDS011;10689;50.836;3.266;2023-02-28T15:21:59;3.37;;;2.47;;
21060;SDS011;10689;50.836;3.266;2023-02-28T15:24:49;4.30;;;2.17;;
21060;SDS011;10689;50.836;3.266;2023-02-28T15:27:22;3.63;;;2.10;;
21060;SDS011;10689;50.836;3.266;2023-02-28T15:29:56;2.30;;;2.10;;
21060;SDS011;10689;50.836;3.266;2023-02-28T15:34:55;11.70;;;2.40;;
21060;SDS011;10689;50.836;3.266;2023-02-28T15:37:45;2.40;;;2.20;;
21060;SDS011;10689;50.836;3.266;2023-02-28T15:43:16;3.07;;;2.10;;
21060;SDS011;10689;50.836;3.266;2023-02-28T15:45:49;2.33;;;2.13;;
21060;SDS011;10689;50.836;3.266;2023-02-28T15:48:18;2.33;;;2.13;;
21060;SDS011;10689;50.836;3.266;2023-02-28T15:50:48;2.57;;;2.23;;
21060;SDS011;10689;50.836;3.266;2023-02-28T15:53:33;2.83;;;2.57;;
21060;SDS011;10689;50.836;3.266;2023-02-28T15:56:07;2.57;;;2.37;;
21060;SDS011;10689;50.836;3.266;2023-02-28T15:59:01;2.53;;;2.20;;
21060;SDS011;10689;50.836;3.266;2023-02-28T16:01:31;2.30;;;2.20;;
21060;SDS011;10689;50.836;3.266;2023-02-28T16:04:03;2.60;;;2.40;;
21060;SDS011;10689;50.836;3.266;2023-02-28T16:06:42;2.47;;;2.00;;
21060;SDS011;10689;50.836;3.266;2023-02-28T16:09:12;2.90;;;2.60;;
21060;SDS011;10689;50.836;3.266;2023-02-28T16:11:45;3.87;;;2.77;;
21060;SDS011;10689;50.836;3.266;2023-02-28T16:14:16;3.50;;;2.57;;
21060;SDS011;10689;50.836;3.266;2023-02-28T16:16:51;4.00;;;2.40;;
21060;SDS011;10689;50.836;3.266;2023-02-28T16:19:22;2.93;;;2.43;;
21060;SDS011;10689;50.836;3.266;2023-02-28T16:21:50;3.77;;;2.20;;
21060;SDS011;10689;50.836;3.266;2023-02-28T16:24:16;2.80;;;2.57;;
21060;SDS011;10689;50.836;3.266;2023-02-28T16:26:42;4.87;;;2.50;;
21060;SDS011;10689;50.836;3.266;2023-02-28T16:29:13;2.57;;;1.80;;
21060;SDS011;10689;50.836;3.266;2023-02-28T16:31:51;2.73;;;2.53;;
21060;SDS011;10689;50.836;3.266;2023-02-28T16:34:19;2.80;;;2.17;;
21060;SDS011;10689;50.836;3.266;2023-02-28T16:36:48;2.20;;;2.00;;
21060;SDS011;10689;50.836;3.266;2023-02-28T16:39:15;2.53;;;2.33;;
21060;SDS011;10689;50.836;3.266;2023-02-28T16:41:42;5.33;;;2.50;;
21060;SDS011;10689;50.836;3.266;2023-02-28T16:44:10;2.90;;;2.60;;
21060;SDS011;10689;50.836;3.266;2023-02-28T16:46:59;2.43;;;2.23;;
21060;SDS011;10689;50.836;3.266;2023-02-28T16:49:26;4.77;;;2.50;;
21060;SDS011;10689;50.836;3.266;2023-02-28T16:51:52;3.27;;;2.53;;
21060;SDS011;10689;50.836;3.266;2023-02-28T16:54:20;3.37;;;2.93;;
21060;SDS011;10689;50.836;3.266;2023-02-28T16:56:46;4.87;;;3.20;;
21060;SDS011;10689;50.836;3.266;2023-02-28T16:59:13;4.67;;;2.90;;
21060;SDS011;10689;50.836;3.266;2023-02-28T17:01:43;7.37;;;2.43;;
21060;SDS011;10689;50.836;3.266;2023-02-28T17:04:10;4.10;;;2.80;;
21060;SDS011;10689;50.836;3.266;2023-02-28T17:06:36;2.83;;;2.60;;
21060;SDS011;10689;50.836;3.266;2023-02-28T17:09:08;6.03;;;2.83;;
21060;SDS011;10689;50.836;3.266;2023-02-28T17:11:40;2.80;;;2.60;;
21060;SDS011;10689;50.836;3.266;2023-02-28T17:14:06;3.83;;;3.03;;
21060;SDS011;10689;50.836;3.266;2023-02-28T17:16:34;4.63;;;2.90;;
21060;SDS011;10689;50.836;3.266;2023-02-28T17:19:02;3.90;;;3.07;;
21060;SDS011;10689;50.836;3.266;2023-02-28T17:21:30;2.90;;;2.67;;
21060;SDS011;10689;50.836;3.266;2023-02-28T17:23:58;4.13;;;3.10;;
21060;SDS011;10689;50.836;3.266;2023-02-28T17:26:24;4.33;;;3.07;;
21060;SDS011;10689;50.836;3.266;2023-02-28T17:28:53;4.23;;;2.97;;
21060;SDS011;10689;50.836;3.266;2023-02-28T17:31:21;3.67;;;2.77;;
21060;SDS011;10689;50.836;3.266;2023-02-28T17:33:48;5.53;;;3.10;;
21060;SDS011;10689;50.836;3.266;2023-02-28T17:36:14;4.50;;;3.30;;
21060;SDS011;10689;50.836;3.266;2023-02-28T17:38:42;4.13;;;3.00;;
21060;SDS011;10689;50.836;3.266;2023-02-28T17:41:09;3.77;;;3.33;;
21060;SDS011;10689;50.836;3.266;2023-02-28T17:43:36;3.37;;;3.07;;
21060;SDS011;10689;50.836;3.266;2023-02-28T17:46:05;3.47;;;2.80;;
21060;SDS011;10689;50.836;3.266;2023-02-28T17:48:38;4.90;;;3.10;;
21060;SDS011;10689;50.836;3.266;2023-02-28T17:51:04;6.67;;;3.10;;
21060;SDS011;10689;50.836;3.266;2023-02-28T17:53:30;5.20;;;3.83;;
21060;SDS011;10689;50.836;3.266;2023-02-28T17:55:59;3.87;;;3.43;;
21060;SDS011;10689;50.836;3.266;2023-02-28T17:58:25;5.20;;;3.53;;
21060;SDS011;10689;50.836;3.266;2023-02-28T18:00:50;5.23;;;3.73;;
21060;SDS011;10689;50.836;3.266;2023-02-28T18:03:21;5.87;;;3.73;;
21060;SDS011;10689;50.836;3.266;2023-02-28T18:05:49;4.47;;;3.07;;
21060;SDS011;10689;50.836;3.266;2023-02-28T18:08:15;4.73;;;3.53;;